Time;durP1;ratioP1;P1;durP2;ratioP2;P2;SDS_P1;SDS_P2;PMS_P1;PMS_P2;Temp;Humidity;BMP_temperature;BMP_pressure;BME280_temperature;BME280_humidity;BME280_pressure;Samples;Min_cycle;Max_cycle;Signal;HPM_P1;HPM_P2
2022/03/06 00:00:01;;;;;;;20.45;12.80;;;0.00;99.90;;;;;;5109891;27;20050;-83
2022/03/06 00:02:27;;;;;;;20.90;12.05;;;0.10;99.90;;;;;;5119455;27;20043;-83
2022/03/06 00:04:52;;;;;;;19.80;12.35;;;0.10;99.90;;;;;;5126791;27;20030;-83
2022/03/06 00:07:18;;;;;;;18.42;11.65;;;0.10;99.90;;;;;;5121275;27;20094;-83
2022/03/06 00:09:44;;;;;;;19.98;12.45;;;0.10;99.90;;;;;;5105248;27;20034;-83
2022/03/06 00:12:11;;;;;;;18.15;12.32;;;0.10;99.90;;;;;;5109650;27;20125;-83
2022/03/06 00:14:38;;;;;;;20.48;12.73;;;0.20;99.90;;;;;;5127622;27;20047;-83
2022/03/06 00:17:03;;;;;;;21.00;12.20;;;0.20;99.90;;;;;;5101941;27;20047;-83
2022/03/06 00:19:29;;;;;;;19.13;11.93;;;0.20;99.90;;;;;;5127680;27;20035;-83
2022/03/06 00:21:55;;;;;;;19.67;12.02;;;0.20;99.90;;;;;;5111696;27;20504;-83
2022/03/06 00:24:20;;;;;;;21.67;11.68;;;0.20;99.90;;;;;;5113205;27;20046;-83
2022/03/06 00:26:46;;;;;;;17.95;11.45;;;0.30;99.90;;;;;;5114122;27;20082;-83
2022/03/06 00:29:12;;;;;;;20.02;11.98;;;0.30;99.90;;;;;;5104233;27;20038;-84
2022/03/06 00:31:39;;;;;;;21.33;13.10;;;0.30;99.90;;;;;;5111691;27;20053;-83
2022/03/06 00:34:04;;;;;;;22.30;12.27;;;0.30;99.90;;;;;;5113653;27;20039;-83
2022/03/06 00:36:30;;;;;;;20.38;12.05;;;0.30;99.90;;;;;;5097401;27;20047;-83
2022/03/06 00:38:56;;;;;;;19.60;11.05;;;0.40;99.90;;;;;;5126123;27;20093;-83
2022/03/06 00:41:23;;;;;;;18.35;11.27;;;0.40;99.90;;;;;;5132236;27;20602;-84
2022/03/06 00:43:49;;;;;;;17.95;11.30;;;0.40;99.90;;;;;;5107995;27;20050;-83
2022/03/06 00:46:15;;;;;;;19.20;11.35;;;0.50;99.90;;;;;;5111679;27;20070;-83
2022/03/06 00:48:41;;;;;;;18.02;10.73;;;0.50;99.90;;;;;;5123943;27;20496;-84
2022/03/06 00:51:06;;;;;;;18.10;10.73;;;0.60;99.90;;;;;;5105683;27;20035;-83
2022/03/06 00:53:32;;;;;;;17.92;10.65;;;0.60;99.90;;;;;;5126411;27;20039;-83
2022/03/06 00:55:58;;;;;;;18.67;9.95;;;0.70;99.90;;;;;;5110968;27;20054;-83
2022/03/06 00:58:24;;;;;;;18.17;10.25;;;0.70;99.90;;;;;;5127959;27;20068;-83
2022/03/06 01:00:52;;;;;;;20.45;10.02;;;0.70;99.90;;;;;;5130169;27;20046;-83
2022/03/06 01:03:20;;;;;;;17.23;9.80;;;0.70;99.90;;;;;;5119606;27;20043;-83
2022/03/06 01:05:46;;;;;;;15.38;9.18;;;0.70;99.90;;;;;;5105235;27;20082;-83
2022/03/06 01:08:12;;;;;;;14.57;8.70;;;0.80;99.90;;;;;;5110292;27;20074;-83
2022/03/06 01:10:40;;;;;;;17.65;9.90;;;0.80;99.90;;;;;;5106811;27;20114;-84
2022/03/06 01:13:07;;;;;;;18.20;9.25;;;0.80;99.90;;;;;;5100244;27;20130;-83
2022/03/06 01:15:33;;;;;;;18.73;10.38;;;0.90;99.90;;;;;;5115232;27;20047;-83
2022/03/06 01:17:59;;;;;;;14.98;9.18;;;0.90;99.90;;;;;;5099834;27;20042;-83
2022/03/06 01:20:25;;;;;;;15.48;9.57;;;0.90;99.90;;;;;;5128934;27;20578;-84
2022/03/06 01:22:54;;;;;;;17.98;9.43;;;0.90;99.90;;;;;;5093445;27;20043;-83
2022/03/06 01:25:21;;;;;;;16.05;9.15;;;0.90;99.90;;;;;;5107099;27;20043;-83
2022/03/06 01:27:47;;;;;;;16.20;8.75;;;0.90;99.90;;;;;;5103357;27;20050;-83
2022/03/06 01:30:15;;;;;;;17.33;8.85;;;0.90;99.90;;;;;;5105555;27;20047;-83
2022/03/06 01:32:41;;;;;;;16.95;8.73;;;0.90;99.90;;;;;;5102707;27;20040;-83
2022/03/06 01:35:07;;;;;;;16.02;8.70;;;0.90;99.90;;;;;;5110967;27;20080;-84
2022/03/06 01:37:33;;;;;;;17.38;8.80;;;0.90;99.90;;;;;;5107827;27;20047;-84
2022/03/06 01:39:59;;;;;;;13.82;8.05;;;0.90;99.90;;;;;;5107009;27;20117;-83
2022/03/06 01:42:25;;;;;;;16.58;8.57;;;1.00;99.90;;;;;;5113565;27;20443;-84
2022/03/06 01:44:51;;;;;;;16.88;8.25;;;0.90;99.90;;;;;;5107885;27;20077;-83
2022/03/06 01:47:40;;;;;;;14.13;7.68;;;0.90;99.90;;;;;;5108394;27;20042;-82
2022/03/06 01:50:12;;;;;;;14.38;7.53;;;2.10;99.90;;;;;;5112879;27;20054;-83
2022/03/06 01:52:38;;;;;;;13.38;7.70;;;0.90;99.90;;;;;;5116199;27;20046;-83
2022/03/06 01:55:05;;;;;;;19.05;8.07;;;1.70;99.90;;;;;;5113908;27;20103;-83
2022/03/06 01:57:32;;;;;;;15.32;7.43;;;1.00;99.90;;;;;;5114482;27;20126;-83
2022/03/06 01:59:59;;;;;;;17.83;7.93;;;0.90;99.90;;;;;;5092554;27;20039;-83
2022/03/06 02:02:25;;;;;;;17.63;8.52;;;1.00;99.90;;;;;;5130112;27;20045;-83
2022/03/06 02:04:51;;;;;;;17.05;7.97;;;1.30;99.90;;;;;;5127206;27;20034;-83
2022/03/06 02:07:17;;;;;;;17.67;8.57;;;1.50;99.90;;;;;;5105299;27;20875;-83
2022/03/06 02:09:43;;;;;;;13.82;7.45;;;1.00;99.90;;;;;;5113148;27;20077;-82
2022/03/06 02:12:24;;;;;;;14.88;7.97;;;1.00;99.90;;;;;;5112931;27;20038;-83
2022/03/06 02:14:56;;;;;;;16.80;7.93;;;1.00;99.90;;;;;;5103232;27;20582;-83
2022/03/06 02:17:22;;;;;;;15.73;7.15;;;1.00;99.90;;;;;;5127728;27;20046;-83
2022/03/06 02:20:04;;;;;;;14.98;7.78;;;1.00;99.90;;;;;;5129047;27;20523;-83
2022/03/06 02:22:32;;;;;;;12.20;6.45;;;1.00;99.90;;;;;;5103688;27;20535;-83
2022/03/06 02:25:00;;;;;;;13.95;6.00;;;1.00;99.90;;;;;;5112480;27;20083;-83
2022/03/06 02:27:26;;;;;;;11.82;6.53;;;1.70;99.90;;;;;;5108169;27;20051;-83
2022/03/06 02:29:52;;;;;;;14.85;6.07;;;0.90;99.90;;;;;;5127120;27;20038;-83
2022/03/06 02:32:23;;;;;;;13.10;6.07;;;1.00;99.90;;;;;;5111944;27;20038;-83
2022/03/06 02:34:50;;;;;;;15.68;6.68;;;1.00;99.90;;;;;;5107466;27;20399;-83
2022/03/06 02:37:19;;;;;;;12.60;6.28;;;1.00;99.90;;;;;;5112428;27;20125;-83
2022/03/06 02:39:46;;;;;;;12.98;6.07;;;1.00;99.90;;;;;;5128757;27;20053;-84
2022/03/06 02:42:30;;;;;;;9.93;5.90;;;1.00;99.90;;;;;;5121035;27;20602;-84
2022/03/06 02:44:58;;;;;;;12.13;5.72;;;1.00;99.90;;;;;;5125962;27;20035;-83
2022/03/06 02:47:24;;;;;;;12.90;6.40;;;0.90;99.90;;;;;;5112477;27;20481;-83
2022/03/06 02:49:51;;;;;;;13.35;6.63;;;1.00;99.90;;;;;;5127007;27;20035;-84
2022/03/06 02:52:16;;;;;;;14.73;5.90;;;1.00;99.90;;;;;;5113467;27;20399;-84
2022/03/06 02:54:42;;;;;;;12.07;5.70;;;1.00;99.90;;;;;;5127093;27;20043;-84
2022/03/06 02:57:08;;;;;;;12.13;5.80;;;1.00;99.90;;;;;;5111675;27;20051;-84
2022/03/06 02:59:35;;;;;;;10.40;5.47;;;1.00;99.90;;;;;;5118323;27;20082;-84
2022/03/06 03:02:01;;;;;;;10.75;6.30;;;0.90;99.90;;;;;;5122633;27;20612;-83
2022/03/06 03:04:27;;;;;;;11.00;5.32;;;0.90;99.90;;;;;;5114865;27;20103;-83
2022/03/06 03:06:52;;;;;;;11.65;5.43;;;0.90;99.90;;;;;;5131862;27;20478;-83
2022/03/06 03:09:20;;;;;;;11.95;5.78;;;0.90;99.90;;;;;;5107878;27;20046;-83
2022/03/06 03:11:54;;;;;;;12.57;5.68;;;0.90;99.90;;;;;;5128917;27;20038;-84
2022/03/06 03:14:22;;;;;;;10.18;4.95;;;0.90;99.90;;;;;;5109790;27;20261;-84
2022/03/06 03:16:47;;;;;;;11.43;5.70;;;0.90;99.90;;;;;;5107345;27;20122;-84
2022/03/06 03:19:14;;;;;;;12.40;5.40;;;0.90;99.90;;;;;;5111246;27;20117;-84
2022/03/06 03:21:41;;;;;;;12.10;5.80;;;0.90;99.90;;;;;;5112653;27;20518;-84
2022/03/06 03:24:07;;;;;;;11.68;4.93;;;0.90;99.90;;;;;;5104352;27;20103;-84
2022/03/06 03:26:33;;;;;;;12.90;4.93;;;0.90;99.90;;;;;;5112775;27;20110;-83
2022/03/06 03:28:58;;;;;;;15.52;5.45;;;0.90;99.90;;;;;;5110510;27;20177;-83
2022/03/06 03:31:24;;;;;;;11.52;5.03;;;0.90;99.90;;;;;;5104559;27;20043;-83
2022/03/06 03:33:50;;;;;;;11.80;5.32;;;0.90;99.90;;;;;;5124629;27;20660;-83
2022/03/06 03:36:15;;;;;;;10.68;5.28;;;0.90;99.90;;;;;;5126653;27;20041;-83
2022/03/06 03:38:41;;;;;;;12.88;5.82;;;0.80;99.90;;;;;;5106099;27;20510;-83
2022/03/06 03:41:08;;;;;;;11.52;5.35;;;1.80;99.90;;;;;;5128039;27;20084;-84
2022/03/06 03:43:34;;;;;;;12.48;5.45;;;0.80;99.90;;;;;;5105770;27;20516;-83
2022/03/06 03:46:00;;;;;;;11.20;5.47;;;0.80;99.90;;;;;;5125567;27;20522;-83
2022/03/06 03:48:27;;;;;;;12.18;5.15;;;0.80;99.90;;;;;;5106638;27;20055;-83
2022/03/06 03:50:53;;;;;;;12.25;5.68;;;0.80;99.90;;;;;;5105774;27;20049;-83
2022/03/06 03:53:22;;;;;;;12.93;5.80;;;0.80;99.90;;;;;;5093669;27;20039;-83
2022/03/06 03:55:49;;;;;;;12.30;5.63;;;0.70;99.90;;;;;;5109570;27;20042;-83
2022/03/06 03:58:15;;;;;;;12.70;5.60;;;0.70;99.90;;;;;;5106054;27;20047;-83
2022/03/06 04:00:42;;;;;;;12.63;6.10;;;0.70;99.90;;;;;;5124788;27;20586;-83
2022/03/06 04:03:08;;;;;;;16.00;6.43;;;0.70;99.90;;;;;;5110605;27;20081;-83
2022/03/06 04:05:34;;;;;;;16.17;5.88;;;0.70;99.90;;;;;;5106052;27;20066;-83
2022/03/06 04:08:00;;;;;;;11.05;6.00;;;0.70;99.90;;;;;;5111600;27;20049;-84
2022/03/06 04:10:25;;;;;;;15.35;5.70;;;0.70;99.90;;;;;;5110079;27;20406;-83
2022/03/06 04:12:51;;;;;;;11.30;5.65;;;0.70;99.90;;;;;;5105760;27;20050;-84
2022/03/06 04:15:17;;;;;;;11.45;6.30;;;0.70;99.90;;;;;;5109365;27;20047;-83
2022/03/06 04:17:43;;;;;;;11.60;5.70;;;0.70;99.90;;;;;;5110907;27;20047;-84
2022/03/06 04:20:09;;;;;;;10.73;5.28;;;0.60;99.90;;;;;;5122062;27;20399;-84
2022/03/06 04:22:35;;;;;;;12.15;5.40;;;0.60;99.90;;;;;;5112067;27;20050;-84
2022/03/06 04:25:00;;;;;;;11.25;5.75;;;0.60;99.90;;;;;;5109582;27;20039;-83
2022/03/06 04:27:26;;;;;;;9.75;5.18;;;0.60;99.90;;;;;;5118352;27;20091;-83
2022/03/06 04:29:52;;;;;;;14.50;5.85;;;0.60;99.90;;;;;;5129887;27;20031;-83
2022/03/06 04:32:18;;;;;;;12.18;5.30;;;0.60;99.90;;;;;;5111807;27;20044;-84
2022/03/06 04:34:44;;;;;;;11.85;5.45;;;0.80;99.90;;;;;;5120044;27;20169;-83
2022/03/06 04:37:10;;;;;;;11.50;5.32;;;0.60;99.90;;;;;;5120653;27;20164;-83
2022/03/06 04:39:36;;;;;;;12.40;5.38;;;0.60;99.90;;;;;;5109178;27;20517;-83
2022/03/06 04:42:02;;;;;;;12.25;5.40;;;0.60;99.90;;;;;;5128747;27;20491;-83
2022/03/06 04:44:27;;;;;;;10.32;5.28;;;0.50;99.90;;;;;;5103238;28;20040;-83
2022/03/06 04:46:53;;;;;;;13.00;5.47;;;0.50;99.90;;;;;;5100883;27;20046;-83
2022/03/06 04:49:21;;;;;;;12.52;5.43;;;0.50;99.90;;;;;;5108749;27;20046;-83
2022/03/06 04:51:47;;;;;;;11.68;5.38;;;0.50;99.90;;;;;;5129995;27;20054;-83
2022/03/06 04:54:13;;;;;;;13.00;5.28;;;0.40;99.90;;;;;;5104352;27;20061;-83
2022/03/06 04:56:38;;;;;;;12.93;5.47;;;0.40;99.90;;;;;;5127818;27;20435;-83
2022/03/06 04:59:04;;;;;;;13.70;5.45;;;0.30;99.90;;;;;;5091982;28;20621;-82
2022/03/06 05:01:30;;;;;;;13.10;5.20;;;0.30;99.90;;;;;;5107723;27;20047;-83
2022/03/06 05:03:56;;;;;;;13.95;5.00;;;0.30;99.90;;;;;;5102085;28;20054;-83
2022/03/06 05:06:22;;;;;;;12.20;5.88;;;0.20;99.90;;;;;;5100812;28;20047;-83
2022/03/06 05:08:48;;;;;;;10.43;5.03;;;0.20;99.90;;;;;;5108893;27;20146;-83
2022/03/06 05:11:14;;;;;;;15.50;4.95;;;0.10;99.90;;;;;;5112646;27;20047;-84
2022/03/06 05:13:40;;;;;;;12.18;4.72;;;0.10;99.90;;;;;;5113137;27;20111;-83
2022/03/06 05:16:06;;;;;;;10.20;4.68;;;1.10;99.90;;;;;;5127829;27;20422;-83
2022/03/06 05:18:31;;;;;;;10.93;4.60;;;0.00;99.90;;;;;;5121138;27;20129;-83
2022/03/06 05:20:57;;;;;;;12.75;4.88;;;-0.10;99.90;;;;;;5112249;27;20047;-83
2022/03/06 05:23:23;;;;;;;9.80;4.32;;;0.00;99.90;;;;;;5118067;27;20649;-83
2022/03/06 05:25:49;;;;;;;11.07;5.10;;;-0.10;99.90;;;;;;5105002;27;20034;-84
2022/03/06 05:28:16;;;;;;;14.88;5.75;;;-0.10;99.90;;;;;;5115667;27;20035;-84
2022/03/06 05:30:42;;;;;;;12.00;4.45;;;-0.20;99.90;;;;;;5106024;27;20050;-84
2022/03/06 05:33:08;;;;;;;13.10;4.88;;;-0.20;99.90;;;;;;5102289;27;20046;-84
2022/03/06 05:35:33;;;;;;;11.93;4.75;;;-0.30;99.90;;;;;;5128459;27;20129;-84
2022/03/06 05:37:59;;;;;;;11.98;5.30;;;-0.30;99.90;;;;;;5108937;27;20074;-85
2022/03/06 05:40:25;;;;;;;10.20;4.50;;;-0.30;99.90;;;;;;5108251;27;21055;-84
2022/03/06 05:42:51;;;;;;;12.95;4.80;;;-0.30;99.90;;;;;;5120052;27;20498;-84
2022/03/06 05:45:16;;;;;;;11.27;5.18;;;-0.30;99.90;;;;;;5110086;27;20039;-84
2022/03/06 05:47:43;;;;;;;10.18;4.80;;;-0.30;99.90;;;;;;5105822;27;20158;-84
2022/03/06 05:50:09;;;;;;;12.35;4.53;;;-0.40;99.90;;;;;;5107132;27;20067;-84
2022/03/06 05:52:35;;;;;;;10.07;4.80;;;-0.40;99.90;;;;;;5101113;27;20045;-84
2022/03/06 05:55:03;;;;;;;14.45;4.85;;;-0.40;99.90;;;;;;5103459;27;20055;-84
2022/03/06 05:57:29;;;;;;;10.98;4.88;;;-0.50;99.90;;;;;;5133234;27;20126;-84
2022/03/06 05:59:55;;;;;;;11.43;4.78;;;-0.50;99.90;;;;;;5112417;27;20111;-84
2022/03/06 06:02:21;;;;;;;12.63;4.80;;;-0.50;99.90;;;;;;5111639;27;20508;-84
2022/03/06 06:04:48;;;;;;;10.65;4.75;;;-0.60;99.90;;;;;;5114087;27;20074;-84
2022/03/06 06:07:14;;;;;;;9.15;4.60;;;-0.60;99.90;;;;;;5130450;27;20123;-84
2022/03/06 06:09:39;;;;;;;14.52;6.15;;;-0.60;99.90;;;;;;5104395;27;20073;-84
2022/03/06 06:12:06;;;;;;;12.82;4.90;;;0.30;99.90;;;;;;5103212;27;20415;-84
2022/03/06 06:14:32;;;;;;;13.93;5.20;;;-0.60;99.90;;;;;;5098250;27;20048;-84
2022/03/06 06:16:57;;;;;;;10.85;5.03;;;0.70;99.90;;;;;;5086029;27;20057;-83
2022/03/06 06:19:23;;;;;;;11.40;4.53;;;-0.70;99.90;;;;;;5081277;27;20050;-84
2022/03/06 06:21:49;;;;;;;11.30;4.82;;;-0.70;99.90;;;;;;5096040;28;20514;-83
2022/03/06 06:24:16;;;;;;;8.57;4.25;;;-0.70;99.90;;;;;;5097718;27;20034;-83
2022/03/06 06:26:43;;;;;;;12.52;4.53;;;-0.70;99.90;;;;;;5087666;27;20491;-83
2022/03/06 06:29:09;;;;;;;11.27;4.63;;;-0.60;99.90;;;;;;5087393;27;20039;-84
2022/03/06 06:31:35;;;;;;;10.88;4.43;;;-0.70;99.90;;;;;;5085451;27;20084;-84
2022/03/06 06:34:01;;;;;;;11.90;4.30;;;-0.60;99.90;;;;;;5090276;27;20053;-84
2022/03/06 06:36:27;;;;;;;10.40;4.60;;;-0.50;99.90;;;;;;5086722;27;20574;-84
2022/03/06 06:38:53;;;;;;;10.50;4.13;;;-0.60;99.90;;;;;;5084106;28;20040;-84
2022/03/06 06:41:21;;;;;;;11.73;4.93;;;-0.60;99.90;;;;;;5093337;27;20047;-84
2022/03/06 06:43:47;;;;;;;8.57;4.07;;;1.00;99.90;;;;;;5094391;27;20051;-84
2022/03/06 06:46:13;;;;;;;10.65;3.80;;;-0.20;99.90;;;;;;5082445;27;20566;-84
2022/03/06 06:48:39;;;;;;;6.65;3.58;;;-0.50;99.90;;;;;;5084217;27;20096;-85
2022/03/06 06:51:05;;;;;;;10.20;4.20;;;1.00;99.90;;;;;;5080593;27;20070;-84
2022/03/06 06:53:31;;;;;;;9.68;3.92;;;-0.30;99.90;;;;;;5087802;27;20126;-84
2022/03/06 06:55:57;;;;;;;12.43;3.83;;;1.00;99.90;;;;;;5080282;27;20774;-83
2022/03/06 06:58:23;;;;;;;8.48;3.78;;;-0.40;99.90;;;;;;5081657;27;20043;-85
2022/03/06 07:00:49;;;;;;;9.75;3.80;;;-0.50;99.90;;;;;;5081488;27;20078;-85
2022/03/06 07:03:15;;;;;;;6.32;3.13;;;-0.30;99.90;;;;;;5084709;27;20038;-85
2022/03/06 07:05:42;;;;;;;8.30;3.65;;;-0.30;99.90;;;;;;5080833;27;20522;-84
2022/03/06 07:08:08;;;;;;;7.82;3.40;;;-0.20;99.90;;;;;;5082001;27;20071;-84
2022/03/06 07:10:33;;;;;;;6.68;3.28;;;-0.10;99.90;;;;;;5103534;27;20081;-84
2022/03/06 07:12:59;;;;;;;6.18;2.85;;;0.40;99.90;;;;;;5089413;27;20055;-84
2022/03/06 07:15:28;;;;;;;9.70;3.10;;;1.50;99.90;;;;;;5078184;27;20096;-84
2022/03/06 07:17:56;;;;;;;7.28;3.13;;;2.10;99.90;;;;;;5083243;27;20563;-84
2022/03/06 07:20:22;;;;;;;6.72;2.40;;;3.10;99.90;;;;;;5097190;27;20457;-84
2022/03/06 07:22:48;;;;;;;6.88;2.75;;;4.00;99.90;;;;;;5084165;27;20150;-84
2022/03/06 07:25:14;;;;;;;6.90;2.40;;;5.50;99.90;;;;;;5109495;27;20050;-85
2022/03/06 07:27:40;;;;;;;6.47;2.30;;;5.30;99.90;;;;;;5075592;27;20043;-84
2022/03/06 07:30:06;;;;;;;4.93;1.95;;;5.60;99.90;;;;;;5102623;27;20092;-84
2022/03/06 07:32:32;;;;;;;6.28;1.80;;;6.30;99.90;;;;;;5076877;27;20398;-84
2022/03/06 07:34:57;;;;;;;5.68;1.70;;;7.10;99.90;;;;;;5080200;27;20039;-84
2022/03/06 07:37:23;;;;;;;4.70;1.80;;;8.20;99.90;;;;;;5074327;27;20088;-84
2022/03/06 07:40:27;;;;;;;7.43;1.88;;;8.20;99.90;;;;;;5086557;27;20055;-84
2022/03/06 07:43:03;;;;;;;5.57;1.90;;;9.70;99.90;;;;;;5070797;27;20047;-84
2022/03/06 07:46:04;;;;;;;6.75;1.85;;;7.50;99.90;;;;;;5072449;27;20039;-84
2022/03/06 07:48:39;;;;;;;5.10;2.10;;;8.20;99.90;;;;;;5083030;28;20070;-84
2022/03/06 07:55:32;;;;;;;4.63;1.80;;;8.50;99.90;;;;;;5084890;27;20875;-84
2022/03/06 07:59:05;;;;;;;5.63;1.42;;;9.30;99.90;;;;;;5078990;27;20058;-85
2022/03/06 08:01:37;;;;;;;;;;;9.60;99.90;;;;;;5057499;28;20065;-81
2022/03/06 08:04:06;;;;;;;6.90;1.70;;;10.60;99.90;;;;;;5058269;28;19930;-83
2022/03/06 08:07:05;;;;;;;5.20;1.70;;;10.60;99.50;;;;;;5061803;28;20646;-84
2022/03/06 08:09:42;;;;;;;6.03;1.75;;;11.70;96.50;;;;;;5049672;28;20047;-85
2022/03/06 08:12:15;;;;;;;6.78;1.70;;;11.30;91.30;;;;;;5066727;28;20165;-87
2022/03/06 08:14:41;;;;;;;6.78;1.85;;;11.70;88.80;;;;;;5054064;28;20047;-84
2022/03/06 08:17:07;;;;;;;6.30;1.60;;;8.10;87.40;;;;;;5064772;28;20083;-86
2022/03/06 08:19:33;;;;;;;6.10;1.77;;;7.50;91.50;;;;;;5061214;28;20045;-84
2022/03/06 08:21:58;;;;;;;6.25;1.63;;;8.40;92.00;;;;;;5052926;28;20048;-84
2022/03/06 08:24:24;;;;;;;6.28;1.88;;;6.60;92.90;;;;;;5056106;28;20043;-84
2022/03/06 08:26:50;;;;;;;5.25;1.60;;;7.30;94.80;;;;;;5057270;28;20051;-83
2022/03/06 08:29:15;;;;;;;6.07;1.83;;;5.90;96.20;;;;;;5035083;28;20834;-84
2022/03/06 08:31:41;;;;;;;5.53;1.55;;;5.80;96.40;;;;;;5070063;28;20048;-85
2022/03/06 08:34:07;;;;;;;6.05;1.80;;;5.60;96.40;;;;;;5067658;28;20047;-81
2022/03/06 08:36:34;;;;;;;5.22;1.60;;;5.90;97.40;;;;;;5089861;28;20051;-83
2022/03/06 08:38:59;;;;;;;6.40;1.63;;;6.40;97.80;;;;;;5074855;28;20741;-83
2022/03/06 08:41:25;;;;;;;5.90;1.67;;;5.20;97.10;;;;;;5090421;28;20040;-85
2022/03/06 08:43:51;;;;;;;6.15;1.70;;;5.10;98.30;;;;;;5080665;27;20050;-84
2022/03/06 08:46:16;;;;;;;5.63;2.15;;;5.90;99.60;;;;;;5075646;27;20047;-84
2022/03/06 08:48:45;;;;;;;8.43;1.80;;;5.20;99.90;;;;;;5077726;27;20035;-83
2022/03/06 08:51:10;;;;;;;6.45;2.10;;;5.40;99.90;;;;;;5079192;27;20131;-86
2022/03/06 08:53:36;;;;;;;4.78;1.67;;;5.40;98.50;;;;;;5082208;27;20764;-84
2022/03/06 08:56:02;;;;;;;4.93;2.00;;;5.40;97.90;;;;;;5075831;27;20149;-84
2022/03/06 08:58:28;;;;;;;5.65;1.85;;;5.40;99.70;;;;;;5074855;27;20042;-84
2022/03/06 09:00:53;;;;;;;6.00;1.70;;;4.80;99.10;;;;;;5078304;27;20666;-85
2022/03/06 09:03:20;;;;;;;7.10;1.85;;;5.40;98.70;;;;;;5101242;27;20047;-87
2022/03/06 09:05:46;;;;;;;8.88;1.98;;;5.30;96.90;;;;;;5085578;27;20122;-84
2022/03/06 09:08:11;;;;;;;6.55;2.10;;;5.10;97.30;;;;;;5064330;27;20410;-85
2022/03/06 09:10:39;;;;;;;5.40;1.70;;;6.20;97.20;;;;;;5094659;27;20051;-85
2022/03/06 09:13:06;;;;;;;5.13;1.80;;;5.10;96.80;;;;;;5099592;27;20856;-85
2022/03/06 09:15:32;;;;;;;6.65;1.55;;;5.00;96.50;;;;;;5118907;27;20080;-84
2022/03/06 09:17:58;;;;;;;7.68;2.03;;;5.00;98.60;;;;;;5103074;27;20065;-84
2022/03/06 09:20:25;;;;;;;6.47;1.95;;;5.10;99.30;;;;;;5102032;27;20054;-85
2022/03/06 09:22:51;;;;;;;4.15;1.83;;;5.20;98.00;;;;;;5100925;27;20042;-85
2022/03/06 09:25:20;;;;;;;9.77;1.88;;;5.20;97.80;;;;;;5107931;27;20051;-85
2022/03/06 09:27:46;;;;;;;5.05;1.70;;;5.30;98.00;;;;;;5095029;27;20164;-84
2022/03/06 09:30:13;;;;;;;7.45;2.20;;;5.30;97.70;;;;;;5111308;27;20042;-83
2022/03/06 09:32:39;;;;;;;7.03;1.77;;;5.40;97.20;;;;;;5108306;27;20042;-84
2022/03/06 09:35:06;;;;;;;7.00;1.80;;;5.40;96.50;;;;;;5090078;27;20516;-83
2022/03/06 09:37:33;;;;;;;6.55;1.83;;;5.40;96.80;;;;;;5116133;27;20046;-84
2022/03/06 09:39:59;;;;;;;7.05;2.05;;;5.40;97.70;;;;;;5095029;27;20078;-84
2022/03/06 09:42:25;;;;;;;6.28;1.85;;;5.50;98.40;;;;;;5104633;27;21432;-82
2022/03/06 09:44:51;;;;;;;7.35;2.30;;;5.60;98.80;;;;;;5096809;27;20404;-86
2022/03/06 09:47:22;;;;;;;7.00;2.40;;;5.60;97.80;;;;;;5091012;27;20055;-83
2022/03/06 09:49:48;;;;;;;6.65;1.98;;;5.60;98.30;;;;;;5107744;27;20758;-84
2022/03/06 09:52:13;;;;;;;6.68;2.30;;;5.70;98.90;;;;;;5110411;27;20069;-85
2022/03/06 09:54:40;;;;;;;7.57;2.00;;;5.60;98.30;;;;;;5099357;27;20424;-84
2022/03/06 09:57:06;;;;;;;7.28;2.38;;;5.60;98.20;;;;;;5094071;27;20073;-85
2022/03/06 09:59:32;;;;;;;7.53;2.17;;;5.50;98.00;;;;;;5107882;27;20138;-83
2022/03/06 10:02:05;;;;;;;7.25;2.20;;;5.60;98.80;;;;;;5107847;27;20134;-85
2022/03/06 10:04:35;;;;;;;7.88;2.10;;;6.60;99.10;;;;;;5109237;27;20054;-85
2022/03/06 10:07:19;;;;;;;7.50;2.60;;;5.50;97.60;;;;;;5097103;27;20046;-83
2022/03/06 10:09:54;;;;;;;6.53;2.60;;;5.40;98.30;;;;;;5101892;27;20106;-84
2022/03/06 10:12:31;;;;;;;8.73;2.53;;;5.40;98.70;;;;;;5107383;27;20062;-84
2022/03/06 10:15:06;;;;;;;6.95;2.17;;;5.40;98.20;;;;;;5080108;27;20044;-84
2022/03/06 10:17:35;;;;;;;8.25;2.22;;;5.30;98.40;;;;;;5060408;27;20136;-86
2022/03/06 10:20:03;;;;;;;5.63;2.00;;;6.60;99.00;;;;;;5096155;27;20039;-87
2022/03/06 10:22:36;;;;;;;7.97;2.30;;;5.30;98.70;;;;;;5077660;27;20043;-85
2022/03/06 10:25:13;;;;;;;6.43;2.30;;;5.70;97.90;;;;;;5081480;27;20054;-85
2022/03/06 10:27:45;;;;;;;5.45;2.10;;;5.20;98.20;;;;;;5096246;27;20170;-85
2022/03/06 10:30:35;;;;;;;8.90;2.38;;;5.20;99.50;;;;;;5098653;27;20046;-85
2022/03/06 10:33:26;;;;;;;6.97;2.33;;;5.20;99.30;;;;;;5091909;27;20043;-85
2022/03/06 10:35:55;;;;;;;7.70;2.30;;;5.10;99.80;;;;;;5086674;27;20050;-86
2022/03/06 10:38:33;;;;;;;8.07;2.55;;;5.10;99.90;;;;;;5099466;27;20184;-83
2022/03/06 10:41:02;;;;;;;5.13;2.20;;;4.60;99.90;;;;;;5111361;27;20177;-86
2022/03/06 10:43:29;;;;;;;6.18;2.08;;;5.10;99.90;;;;;;5108348;27;20049;-85
2022/03/06 10:46:24;;;;;;;6.70;2.60;;;5.10;99.90;;;;;;5111511;27;20042;-86
2022/03/06 10:48:56;;;;;;;8.52;2.35;;;5.20;99.90;;;;;;5081681;27;20062;-84
2022/03/06 10:51:44;;;;;;;7.30;2.28;;;5.20;99.90;;;;;;5084080;27;20131;-83
2022/03/06 10:57:10;;;;;;;8.68;2.53;;;5.10;99.90;;;;;;5076885;27;20108;-86
2022/03/06 10:59:38;;;;;;;8.45;2.38;;;5.10;99.90;;;;;;5077361;28;20548;-84
2022/03/06 11:02:07;;;;;;;5.70;2.53;;;6.10;99.90;;;;;;5082914;27;20066;-86
2022/03/06 11:05:07;;;;;;;5.47;2.05;;;5.10;99.90;;;;;;5078404;27;20196;-86
2022/03/06 11:07:54;;;;;;;6.32;2.20;;;5.30;99.90;;;;;;5070030;27;20058;-86
2022/03/06 11:11:02;;;;;;;7.93;2.20;;;5.80;99.90;;;;;;5092632;27;20090;-86
2022/03/06 11:13:38;;;;;;;6.03;2.10;;;4.60;99.90;;;;;;5060997;28;20146;-85
2022/03/06 11:16:05;;;;;;;8.73;2.30;;;5.40;99.90;;;;;;5068061;28;20047;-85
2022/03/06 11:18:33;;;;;;;5.88;2.20;;;5.60;99.90;;;;;;5052087;28;20173;-85
2022/03/06 11:21:02;;;;;;;7.75;3.03;;;5.80;99.90;;;;;;5070928;28;20103;-84
2022/03/06 11:23:37;;;;;;;6.03;2.47;;;5.70;99.90;;;;;;5055073;28;20043;-84
2022/03/06 11:26:09;;;;;;;5.95;2.30;;;5.70;99.90;;;;;;5101268;27;20069;-84
2022/03/06 11:28:55;;;;;;;;;;;5.80;99.90;;;;;;5053930;28;20130;-85
2022/03/06 11:31:22;;;;;;;6.50;1.90;;;6.00;99.90;;;;;;5007398;28;20584;-85
2022/03/06 11:34:29;;;;;;;6.28;2.00;;;5.60;99.90;;;;;;5034896;28;20167;-86
2022/03/06 11:36:59;;;;;;;7.97;2.30;;;5.90;99.90;;;;;;5063386;27;20074;-85
2022/03/06 11:47:06;;;;;;;5.70;2.55;;;5.70;99.90;;;;;;5121436;27;20047;-85
2022/03/06 11:49:59;;;;;;;6.75;2.30;;;6.40;99.90;;;;;;5047497;28;20059;-84
2022/03/06 11:53:37;;;;;;;5.30;1.90;;;7.40;99.90;;;;;;5017509;28;20068;-87
2022/03/06 11:56:34;;;;;;;7.85;2.10;;;5.60;99.90;;;;;;5090484;27;20410;-88
2022/03/06 11:59:24;;;;;;;7.03;1.83;;;6.00;99.90;;;;;;5102913;27;20051;-86
2022/03/06 12:01:54;;;;;;;8.23;2.25;;;6.00;99.90;;;;;;5100304;27;20111;-86
2022/03/06 12:04:43;;;;;;;8.65;2.13;;;5.40;99.90;;;;;;5098845;27;20624;-85
2022/03/06 12:07:10;;;;;;;7.68;2.35;;;6.00;99.90;;;;;;5090304;27;20043;-85
2022/03/06 12:09:43;;;;;;;7.43;2.30;;;6.00;99.90;;;;;;5105373;27;20499;-84
2022/03/06 12:12:12;;;;;;;7.22;2.40;;;6.90;99.90;;;;;;5105782;27;20047;-84
2022/03/06 12:14:50;;;;;;;5.38;2.03;;;6.40;99.90;;;;;;5100053;27;20066;-84
2022/03/06 12:17:22;;;;;;;6.68;2.30;;;6.00;99.90;;;;;;5104854;27;20047;-84
2022/03/06 12:19:50;;;;;;;;;;;5.90;99.90;;;;;;5111039;27;20047;-84
2022/03/06 12:22:43;;;;;;;7.88;2.40;;;6.00;99.90;;;;;;5097545;27;20279;-84
2022/03/06 12:25:13;;;;;;;8.45;1.77;;;6.50;99.90;;;;;;5088772;27;20076;-83
2022/03/06 12:28:01;;;;;;;5.15;2.03;;;6.00;99.90;;;;;;5105549;27;20053;-85
2022/03/06 12:30:28;;;;;;;8.35;2.00;;;6.10;99.90;;;;;;5093192;27;20043;-86
2022/03/06 12:32:57;;;;;;;5.63;1.90;;;6.10;99.90;;;;;;5110239;27;20069;-84
2022/03/06 12:35:25;;;;;;;6.82;2.08;;;6.50;99.90;;;;;;5093472;27;20135;-85
2022/03/06 12:37:55;;;;;;;7.35;2.10;;;7.00;99.90;;;;;;5113511;27;20241;-84
2022/03/06 12:40:26;;;;;;;9.82;2.20;;;7.40;99.90;;;;;;5116577;27;20039;-85
2022/03/06 12:43:01;;;;;;;10.05;2.20;;;5.80;99.90;;;;;;5092052;27;20403;-84
2022/03/06 12:45:27;;;;;;;5.63;1.95;;;6.10;99.90;;;;;;5102649;27;20079;-86
2022/03/06 12:47:53;;;;;;;7.05;2.53;;;7.20;99.90;;;;;;5090607;27;20050;-86
2022/03/06 12:50:21;;;;;;;5.20;1.90;;;6.20;99.90;;;;;;5085508;27;20398;-85
2022/03/06 12:52:52;;;;;;;7.80;2.22;;;6.00;99.90;;;;;;5101700;27;20068;-85
2022/03/06 12:55:28;;;;;;;6.18;1.80;;;6.10;99.90;;;;;;5088897;27;20736;-83
2022/03/06 12:57:56;;;;;;;7.35;2.00;;;6.70;99.90;;;;;;5090329;27;20047;-84
2022/03/06 13:00:28;;;;;;;7.47;2.33;;;6.30;99.90;;;;;;5107404;27;20777;-86
2022/03/06 13:03:05;;;;;;;7.43;2.28;;;6.40;99.90;;;;;;5090995;27;20449;-83
2022/03/06 13:05:33;;;;;;;7.25;2.40;;;6.40;99.90;;;;;;5079670;27;20459;-85
2022/03/06 13:07:58;;;;;;;4.45;1.75;;;6.40;99.90;;;;;;5105918;27;20497;-84
2022/03/06 13:10:25;;;;;;;8.05;2.28;;;6.40;99.90;;;;;;5106699;27;20046;-85
2022/03/06 13:12:53;;;;;;;10.05;2.13;;;6.40;99.90;;;;;;5095253;27;20459;-86
2022/03/06 13:15:20;;;;;;;8.27;2.08;;;6.90;99.90;;;;;;5091989;27;20204;-85